News

0-ATPL(A) free webinar

Flying Academy is hosting on 2 of October from 17:00 to 18:00 CET (UTC+2)
a free live webinar where our Flight Training Consultants will present all details about our 0-ATPL(A) course.

During this one hour presentation we will discuss about:

- course description

- requirements to enroll

- course duration and cost

- living in the Czech Republic

- visa assistance for non EU trainees

- extra curricular activities.

We will also have a Q&A session at the end so that all question which you might have will be answered.

You can register for free HERE

See you on the webinar and soon aboard our airplanes!

continue reading >>

Flying Academy invites you to visit Open Day!

Flying Academy, one of the fastest growing flight training schools in Europe, invites all aviation enthusiasts and those who are interested in professional pilot training to visit Open Day that will take place both in Prague and Brno
on 4
th of October from 10.00 a.m.!

During the Open Day you have a great opportunity to meet current transport pilots, experienced flight instructors, visit  Flying Academy’s hangar and enjoy the atmosphere of an airline-like environment.

continue reading >>

New ATPL650 - theoretical course - starts in Brno as of 29.10.2014

Flying Academy, one of the fastest growing international flight school in Europe launches new ATPL(A) theory course.

Theory program, divided in 2 blocks, lasts for 28 weeks.

Register now for the following block that will start
as of 29th of October in Brno and use solid advantages of high standard flight training in an airline-like environment:

 

continue reading >>

archive

Latest blog post

10 advantages for using the iPad in the cockpit

Flying Academy – the flight training organization managed by airline pilots – has started 2 months ago to equip its trainees with iPads. The Academy took the lead to revolutionize the cockpit and pilot training, realizing the vision of paperless flying and becoming the first Czech FTO to fly with iPad EFBs. The process will make learning to fly much easier, more efficient and accurate, useful for private pilots and important for future commercial pilots.

After having the iPad in trials, Flying Academy’s flight instructors have concluded that it’s extremely useful in the cockpit because it’s:

1. Fast – extremely short response time;

2. Reliable – as the iOS has very limited crashes;

3. Easy to use – intuitive menu and apps.

continue reading >>

archive

Latest weather

LKKV

LKKV 302300Z 00000KT 1400 R29/0800D BR BCFG BKN001 BKN040 14/13 Q1026

LKPR

LKPR 302330Z 19004KT 160V260 6000 FEW043 14/13 Q1026 NOSIG

LKTB

LKTB 302330Z 00000KT 3000 -RA BR NSC 13/12 Q1025 NOSIG



Briefing tools

METAR & TAF Europe

METAR & TAF CZ

Weather Radar CZ

AIP Czech Republic

From 0 to 500 hours with Flying Academy Find out how